Terminal Aerodrome Forecast
Issued by NWS

Home | Current Version | Previous Version | Text Only | Print | Product List | Glossary On
Versions: 1 2 3 4 5 6 7 8 9 10 11 12 13 14 15 16 17 18
000
FTUS44 KMAF 201200 AAA
TAFINK
TAF AMD
KINK 201204Z 2012/2112 14006KT 5SM BR BKN002
      TEMPO 2012/2016 1/4SM FG OVC001
     FM201600 16007KT 4SM BR OVC008
     FM201700 18007KT P6SM FEW200
     FM210500 18005KT 6SM BR BKN010=

USA.gov is the U.S. government's official web portal to all federal, state and local government web resources and services.